Time;durP1;ratioP1;P1;durP2;ratioP2;P2;SDS_P1;SDS_P2;PMS_P1;PMS_P2;Temp;Humidity;BMP_temperature;BMP_pressure;BME280_temperature;BME280_humidity;BME280_pressure;Samples;Min_cycle;Max_cycle;Signal;HPM_P1;HPM_P2
2023/07/03 00:02:09;;;;;;;13.32;4.43;;;;;;;15.41;66.84;101003.09;4955994;29;20023;-80
2023/07/03 00:04:35;;;;;;;13.18;4.35;;;;;;;15.31;66.57;100983.97;4956180;29;20473;-80
2023/07/03 00:07:05;;;;;;;11.70;4.20;;;;;;;15.21;66.88;100972.63;4961052;28;20511;-79
2023/07/03 00:09:31;;;;;;;11.57;4.00;;;;;;;15.37;67.08;101001.69;4974412;28;20041;-80
2023/07/03 00:11:57;;;;;;;12.98;5.20;;;;;;;15.37;67.04;100987.84;4975197;28;20046;-80
2023/07/03 00:14:22;;;;;;;17.15;5.07;;;;;;;15.34;67.09;100988.09;4975351;28;20031;-80
2023/07/03 00:16:47;;;;;;;14.73;4.53;;;;;;;14.96;67.71;100918.34;4974694;28;20061;-79
2023/07/03 00:19:13;;;;;;;12.73;4.63;;;;;;;15.29;67.55;100990.25;4975004;28;20226;-79
2023/07/03 00:21:46;;;;;;;13.85;4.43;;;;;;;15.26;67.85;100987.91;4975027;28;20480;-80
2023/07/03 00:24:12;;;;;;;13.63;4.28;;;;;;;15.26;67.68;100986.13;4975016;28;20038;-79
2023/07/03 00:26:38;;;;;;;16.85;4.95;;;;;;;15.16;67.61;100972.19;4957594;28;20022;-80
2023/07/03 00:29:04;;;;;;;13.95;4.32;;;;;;;15.19;68.00;100993.56;4974779;28;20388;-80
2023/07/03 00:31:29;;;;;;;12.45;4.57;;;;;;;15.17;67.99;100977.28;4974782;28;20029;-81
2023/07/03 00:33:55;;;;;;;14.77;4.60;;;;;;;15.15;68.32;100989.59;4974797;28;20027;-81
2023/07/03 00:36:21;;;;;;;15.10;4.40;;;;;;;15.17;68.45;100986.84;4974690;28;20062;-80
2023/07/03 00:38:46;;;;;;;15.60;4.70;;;;;;;14.96;68.72;100968.59;4974752;28;20078;-80
2023/07/03 00:41:11;;;;;;;12.48;4.28;;;;;;;15.16;69.12;100986.03;4974662;28;20027;-80
2023/07/03 00:43:40;;;;;;;14.73;4.40;;;;;;;15.08;69.14;100980.59;4974552;28;20473;-80
2023/07/03 00:46:08;;;;;;;18.65;5.32;;;;;;;15.12;68.86;100989.81;4974568;28;20396;-81
2023/07/03 00:48:34;;;;;;;12.95;4.53;;;;;;;15.00;69.05;100958.75;4974396;28;20106;-80
2023/07/03 00:51:00;;;;;;;13.43;4.85;;;;;;;15.11;69.23;100988.16;4974440;28;20392;-80
2023/07/03 00:53:25;;;;;;;11.85;4.40;;;;;;;15.02;69.65;100962.88;4974498;28;20031;-80
2023/07/03 00:55:51;;;;;;;13.20;4.20;;;;;;;15.08;69.52;100972.81;4974713;28;20054;-80
2023/07/03 00:58:16;;;;;;;16.20;4.20;;;;;;;14.97;69.72;100954.63;4974217;28;20034;-80
2023/07/03 01:00:58;;;;;;;13.60;4.35;;;;;;;14.97;69.72;100964.19;4974473;28;20030;-80
2023/07/03 01:03:35;;;;;;;16.95;4.30;;;;;;;14.95;70.28;100966.09;4974082;28;20027;-80
2023/07/03 01:06:03;;;;;;;15.05;4.65;;;;;;;15.01;70.59;100974.22;4974213;28;20033;-80
2023/07/03 01:08:29;;;;;;;15.82;4.22;;;;;;;14.98;70.63;100968.47;4974189;28;20243;-81
2023/07/03 01:10:55;;;;;;;17.42;5.32;;;;;;;14.88;71.07;100955.34;4974024;28;20536;-80
2023/07/03 01:13:24;;;;;;;21.10;4.45;;;;;;;14.95;71.19;100979.94;4974193;28;20037;-80
2023/07/03 01:15:50;;;;;;;20.17;5.00;;;;;;;14.80;71.46;100953.34;4974092;28;20098;-79
2023/07/03 01:18:16;;;;;;;16.63;4.47;;;;;;;14.95;71.65;100973.91;4973984;28;20078;-80
2023/07/03 01:20:56;;;;;;;15.57;4.30;;;;;;;14.82;71.46;100948.84;4974089;28;20023;-80
2023/07/03 01:23:31;;;;;;;20.00;4.85;;;;;;;14.95;71.80;100976.50;4974192;28;20429;-80
2023/07/03 01:25:58;;;;;;;15.35;4.43;;;;;;;14.86;72.05;100959.84;4974128;28;20046;-80
2023/07/03 01:28:26;;;;;;;14.60;4.60;;;;;;;14.93;72.06;100977.44;4973957;28;20018;-80
2023/07/03 01:30:53;;;;;;;16.48;4.40;;;;;;;14.92;72.34;100975.78;4974002;28;20026;-80
2023/07/03 01:33:25;;;;;;;21.10;4.80;;;;;;;14.90;72.22;100982.88;4973779;28;20018;-80
2023/07/03 01:35:51;;;;;;;;;;;;;;;14.96;71.79;100968.59;4974153;28;20388;-81
2023/07/03 01:38:19;;;;;;;17.45;4.72;;;;;;;14.81;73.07;100955.00;4973753;28;20303;-79
2023/07/03 01:40:44;;;;;;;17.80;4.78;;;;;;;14.90;73.06;100966.44;4973726;28;20543;-80
2023/07/03 01:43:11;;;;;;;16.90;4.32;;;;;;;14.77;73.15;100950.19;4973897;28;20070;-80
2023/07/03 01:45:45;;;;;;;16.77;4.78;;;;;;;14.80;73.34;100961.16;4973650;28;20109;-80
2023/07/03 01:48:11;;;;;;;19.65;5.32;;;;;;;14.68;73.58;100936.13;4973581;28;20034;-80
2023/07/03 01:50:38;;;;;;;17.77;4.90;;;;;;;14.78;73.61;100959.63;4973446;28;20039;-80
2023/07/03 01:53:17;;;;;;;17.77;5.03;;;;;;;14.81;74.03;100965.41;4973594;28;20027;-81
2023/07/03 01:55:57;;;;;;;14.55;4.25;;;;;;;14.88;74.09;100981.34;4973647;28;20035;-80
2023/07/03 01:58:22;;;;;;;20.70;4.90;;;;;;;14.89;74.47;100968.22;5003404;23;20065;-80
2023/07/03 02:00:52;;;;;;;17.67;4.45;;;;;;;14.87;74.29;100975.31;4973571;28;20388;-80
2023/07/03 02:03:26;;;;;;;15.30;4.35;;;;;;;14.88;74.80;100958.78;4973457;28;20037;-80
2023/07/03 02:05:55;;;;;;;19.15;5.18;;;;;;;14.73;74.88;100946.97;4973653;28;20027;-80
2023/07/03 02:08:22;;;;;;;19.25;5.30;;;;;;;14.73;75.29;100944.38;4973306;28;20023;-79
2023/07/03 02:10:48;;;;;;;21.05;5.00;;;;;;;14.44;75.72;100905.03;4956187;28;20377;-79
2023/07/03 02:13:13;;;;;;;21.15;5.20;;;;;;;14.83;75.99;100960.06;4973684;28;20033;-79
2023/07/03 02:15:38;;;;;;;16.20;4.70;;;;;;;14.80;76.06;100963.75;4973544;28;20045;-79
2023/07/03 02:18:04;;;;;;;17.27;4.85;;;;;;;14.79;76.53;100966.47;4973248;28;20034;-79
2023/07/03 02:20:29;;;;;;;20.20;5.60;;;;;;;14.58;77.16;100930.81;4955948;28;20038;-79
2023/07/03 02:22:56;;;;;;;18.13;5.15;;;;;;;14.64;77.12;100945.91;4955968;28;20031;-79
2023/07/03 02:25:22;;;;;;;16.52;5.82;;;;;;;14.54;77.60;100928.56;4973360;28;20033;-79
2023/07/03 02:27:50;;;;;;;22.02;4.45;;;;;;;14.55;78.03;100932.81;4973523;28;20039;-78
2023/07/03 02:30:15;;;;;;;19.77;5.05;;;;;;;14.67;78.55;100957.88;4973485;28;20030;-79
2023/07/03 02:32:41;;;;;;;24.45;5.53;;;;;;;14.54;79.29;100951.94;4975068;28;20026;-80
2023/07/03 02:35:08;;;;;;;22.00;5.68;;;;;;;14.49;80.24;100949.72;4977038;28;20063;-79
2023/07/03 02:37:33;;;;;;;21.23;6.10;;;;;;;14.47;80.71;100945.59;4976974;28;20023;-79
2023/07/03 02:39:58;;;;;;;20.80;5.88;;;;;;;14.42;81.45;100945.91;4976803;28;20046;-78
2023/07/03 02:42:24;;;;;;;19.73;4.93;;;;;;;14.27;81.70;100915.94;4976820;28;20115;-79
2023/07/03 02:44:51;;;;;;;20.92;6.00;;;;;;;14.37;82.09;100939.44;4976830;28;20058;-78
2023/07/03 02:47:16;;;;;;;26.77;6.15;;;;;;;14.32;82.69;100942.34;4976948;28;20070;-78
2023/07/03 02:49:42;;;;;;;16.77;5.38;;;;;;;14.27;82.85;100940.13;4976764;28;20035;-79
2023/07/03 02:52:07;;;;;;;21.50;6.65;;;;;;;14.19;83.44;100939.88;4976638;28;20059;-79
2023/07/03 02:54:32;;;;;;;19.58;5.60;;;;;;;14.10;84.53;100934.56;4976726;28;20034;-79
2023/07/03 02:56:58;;;;;;;20.77;6.63;;;;;;;13.78;85.08;100897.13;4976397;28;20134;-81
2023/07/03 02:59:23;;;;;;;24.08;5.82;;;;;;;13.92;85.79;100932.41;4976433;28;20031;-78
2023/07/03 03:01:49;;;;;;;22.05;6.47;;;;;;;13.89;85.96;100926.63;4976469;28;20377;-79
2023/07/03 03:04:16;;;;;;;27.08;6.22;;;;;;;13.86;85.88;100925.06;4976264;28;20496;-79
2023/07/03 03:06:42;;;;;;;21.20;5.82;;;;;;;13.84;86.52;100931.31;4976410;28;20031;-79
2023/07/03 03:09:09;;;;;;;32.55;7.03;;;;;;;13.55;86.88;100895.38;4976107;28;20038;-79
2023/07/03 03:11:35;;;;;;;19.52;5.40;;;;;;;13.49;87.42;100903.66;4976423;28;20361;-79
2023/07/03 03:14:00;;;;;;;25.42;5.78;;;;;;;13.32;88.00;100886.72;4976397;28;20381;-79
2023/07/03 03:16:26;;;;;;;27.95;6.20;;;;;;;13.47;88.78;100918.50;4976224;28;20050;-79
2023/07/03 03:18:51;;;;;;;29.35;6.60;;;;;;;13.43;89.15;100917.88;4975780;28;20368;-79
2023/07/03 03:21:17;;;;;;;23.35;7.00;;;;;;;13.48;89.55;100925.34;4976400;28;20030;-80
2023/07/03 03:23:42;;;;;;;20.13;5.72;;;;;;;13.45;89.69;100928.16;4976404;28;20054;-80
2023/07/03 03:26:07;;;;;;;20.80;6.00;;;;;;;13.40;90.30;100925.91;4976230;28;20440;-79
2023/07/03 03:28:33;;;;;;;26.58;6.45;;;;;;;13.19;90.63;100889.41;4976093;28;20544;-78
2023/07/03 03:30:59;;;;;;;24.10;6.18;;;;;;;13.37;91.26;100907.97;4976023;28;20030;-78
2023/07/03 03:33:24;;;;;;;21.75;6.25;;;;;;;13.38;91.01;100908.81;4958141;28;20041;-79
2023/07/03 03:35:50;;;;;;;17.83;4.97;;;;;;;13.36;91.40;100903.69;4975725;28;20026;-79
2023/07/03 03:38:15;;;;;;;21.02;5.88;;;;;;;13.52;91.71;100920.75;4976169;28;20034;-79
2023/07/03 03:40:53;;;;;;;29.15;6.55;;;;;;;13.53;91.87;100922.41;4975571;28;20113;-79
2023/07/03 03:43:18;;;;;;;23.90;7.00;;;;;;;13.54;91.92;100929.25;4974909;28;20027;-79
2023/07/03 03:45:52;;;;;;;22.50;6.13;;;;;;;13.53;91.95;100932.78;4958141;28;20039;-80
2023/07/03 03:48:18;;;;;;;22.50;6.32;;;;;;;13.49;92.52;100925.22;4975502;28;20063;-78
2023/07/03 03:50:43;;;;;;;24.58;6.45;;;;;;;13.34;92.60;100918.56;4975574;28;20031;-80
2023/07/03 03:53:08;;;;;;;29.52;6.65;;;;;;;13.39;93.59;100924.25;4975482;28;20164;-80
2023/07/03 03:55:36;;;;;;;25.23;6.25;;;;;;;13.18;94.08;100903.28;4975714;28;20429;-79
2023/07/03 03:58:01;;;;;;;20.23;6.07;;;;;;;13.26;94.63;100915.69;4957913;28;20039;-79
2023/07/03 04:00:26;;;;;;;22.25;6.18;;;;;;;13.19;94.77;100911.91;4975457;28;20030;-79
2023/07/03 04:02:52;;;;;;;22.25;6.35;;;;;;;13.28;95.18;100932.00;4975373;28;20035;-80
2023/07/03 04:05:22;;;;;;;26.58;6.20;;;;;;;12.86;95.03;100863.28;4993595;23;20055;-80
2023/07/03 04:07:47;;;;;;;26.40;6.47;;;;;;;13.29;95.76;100933.66;4954829;29;20030;-82
2023/07/03 04:10:30;;;;;;;24.92;7.03;;;;;;;12.81;95.80;100858.44;4937680;29;20134;-79
2023/07/03 04:12:55;;;;;;;23.55;6.00;;;;;;;12.35;96.14;100780.56;4956056;28;20019;-79
2023/07/03 04:15:24;;;;;;;23.20;7.05;;;;;;;13.19;96.37;100915.31;4955887;28;20389;-80
2023/07/03 04:17:49;;;;;;;19.25;5.72;;;;;;;12.97;96.01;100858.13;4954691;29;20480;-80
2023/07/03 04:20:17;;;;;;;18.98;6.03;;;;;;;13.48;95.34;100917.56;4955824;28;20038;-80
2023/07/03 04:22:44;;;;;;;19.60;6.95;;;;;;;13.64;95.21;100935.41;4955826;28;20047;-81
2023/07/03 04:25:13;;;;;;;26.65;6.70;;;;;;;13.68;94.80;100936.84;4956239;28;20081;-80
2023/07/03 04:27:39;;;;;;;19.88;6.70;;;;;;;13.52;94.70;100902.59;4956211;28;20477;-81
2023/07/03 04:30:05;;;;;;;27.50;6.38;;;;;;;13.58;95.20;100915.13;4955928;28;20110;-81
2023/07/03 04:32:30;;;;;;;23.58;6.20;;;;;;;13.78;94.84;100936.03;4955620;28;20020;-80
2023/07/03 04:34:57;;;;;;;20.77;6.07;;;;;;;13.86;94.66;100929.44;4954247;29;20031;-80
2023/07/03 04:37:26;;;;;;;22.98;6.68;;;;;;;13.93;94.19;100941.84;4955641;28;20038;-80
2023/07/03 04:39:54;;;;;;;24.77;6.95;;;;;;;13.75;94.33;100928.47;4955469;28;20043;-80
2023/07/03 04:42:20;;;;;;;23.35;7.45;;;;;;;13.81;94.46;100944.53;4955368;28;20086;-79
2023/07/03 04:44:48;;;;;;;24.50;6.15;;;;;;;13.92;94.67;100963.56;4955529;28;20103;-79
2023/07/03 04:47:16;;;;;;;23.70;6.22;;;;;;;13.93;95.41;100973.00;4955343;28;20023;-81
2023/07/03 04:49:45;;;;;;;23.77;6.32;;;;;;;13.81;97.48;100947.13;4954078;29;20043;-79
2023/07/03 04:52:11;;;;;;;26.33;6.68;;;;;;;13.93;98.41;100956.59;4955329;28;20038;-80
2023/07/03 04:54:37;;;;;;;31.15;7.13;;;;;;;13.91;99.21;100959.31;4955030;28;20019;-81
2023/07/03 04:57:03;;;;;;;27.02;6.85;;;;;;;13.82;100.00;100957.41;4955192;28;20038;-81
2023/07/03 04:59:29;;;;;;;28.13;7.45;;;;;;;13.56;100.00;100912.59;4955092;28;20027;-80
2023/07/03 05:01:54;;;;;;;27.42;7.53;;;;;;;13.74;100.00;100936.38;4955054;28;20039;-81
2023/07/03 05:04:19;;;;;;;26.15;6.57;;;;;;;13.82;100.00;100939.22;4955172;28;20019;-79
2023/07/03 05:06:46;;;;;;;26.45;7.88;;;;;;;13.90;99.82;100946.44;4954678;28;20066;-80
2023/07/03 05:09:11;;;;;;;26.08;6.63;;;;;;;14.01;99.91;100952.50;4955013;28;20074;-79
2023/07/03 05:11:37;;;;;;;24.83;6.45;;;;;;;14.16;98.54;100954.84;4954955;28;20031;-80
2023/07/03 05:14:02;;;;;;;22.60;7.40;;;;;;;14.29;98.75;100953.81;4954917;29;20939;-79
2023/07/03 05:16:28;;;;;;;29.38;7.72;;;;;;;14.51;97.40;100965.19;4954781;28;20027;-80
2023/07/03 05:18:53;;;;;;;21.65;6.57;;;;;;;14.52;96.08;100967.66;4954624;28;20031;-80
2023/07/03 05:21:19;;;;;;;27.08;7.30;;;;;;;14.29;95.97;100933.03;4954595;28;20023;-78
2023/07/03 05:23:44;;;;;;;26.95;7.88;;;;;;;14.56;96.29;100976.91;4954950;28;20385;-79
2023/07/03 05:26:10;;;;;;;24.40;7.43;;;;;;;14.43;96.55;100955.34;4954676;28;20082;-78
2023/07/03 05:28:37;;;;;;;25.45;7.25;;;;;;;14.60;95.65;100982.66;4954726;29;20027;-79
2023/07/03 05:31:12;;;;;;;28.75;6.90;;;;;;;14.50;95.22;100950.53;4953255;29;20057;-80
2023/07/03 05:33:37;;;;;;;24.17;6.90;;;;;;;14.49;94.97;100936.72;4954660;28;20031;-80
2023/07/03 05:36:30;;;;;;;26.45;6.60;;;;;;;15.02;94.16;100986.28;4954380;29;20023;-81
2023/07/03 05:38:55;;;;;;;17.38;6.72;;;;;;;15.09;92.62;100978.81;4861309;29;20090;-81
2023/07/03 05:41:20;;;;;;;21.55;6.25;;;;;;;15.26;91.79;100991.31;4861097;29;20045;-80
2023/07/03 05:43:46;;;;;;;25.20;6.53;;;;;;;15.11;91.24;100972.53;4861293;29;20041;-80
2023/07/03 05:46:11;;;;;;;19.67;6.88;;;;;;;15.02;91.72;100975.88;4876823;29;20029;-81
2023/07/03 05:48:37;;;;;;;26.77;6.80;;;;;;;14.85;92.08;100964.22;4876534;29;20052;-80
2023/07/03 05:51:10;;;;;;;22.25;6.43;;;;;;;14.96;92.29;100999.78;4876518;29;20088;-80
2023/07/03 05:53:41;;;;;;;27.10;6.60;;;;;;;14.70;92.67;100964.59;4876495;29;20123;-82
2023/07/03 05:56:43;;;;;;;25.25;6.82;;;;;;;14.68;92.26;100959.50;4876635;29;20449;-81
2023/07/03 05:59:30;;;;;;;25.13;6.72;;;;;;;14.85;92.33;101005.81;4839586;29;20038;-81
2023/07/03 06:02:17;;;;;;;20.52;6.20;;;;;;;14.80;92.70;101007.94;4839319;29;20136;-80
2023/07/03 06:05:01;;;;;;;23.90;6.15;;;;;;;14.23;93.95;100917.91;4823946;29;20677;-81
2023/07/03 06:07:32;;;;;;;19.33;6.78;;;;;;;14.19;94.25;100895.72;4840980;29;20038;-81
2023/07/03 06:10:12;;;;;;;26.08;6.68;;;;;;;13.84;93.39;100824.91;4843485;29;20165;-82
2023/07/03 06:12:45;;;;;;;21.33;6.87;;;;;;;13.93;92.48;100837.19;4844689;29;20086;-80
2023/07/03 06:16:06;;;;;;;24.77;7.18;;;;;;;14.96;92.23;101020.59;4858813;29;20119;-79
2023/07/03 06:18:31;;;;;;;24.23;6.25;;;;;;;14.90;92.56;101024.47;4898853;29;20037;-81
2023/07/03 06:21:22;;;;;;;24.33;7.43;;;;;;;14.83;95.69;101014.66;4883237;29;20044;-80
2023/07/03 06:24:09;;;;;;;25.48;6.70;;;;;;;14.86;97.21;101007.47;4867622;29;20041;-87
2023/07/03 06:26:54;;;;;;;26.08;7.32;;;;;;;13.84;96.96;100843.06;4881536;29;20055;-79
2023/07/03 06:29:39;;;;;;;26.10;7.25;;;;;;;14.30;97.41;100911.31;4880042;29;20503;-79
2023/07/03 06:32:05;;;;;;;22.13;6.70;;;;;;;14.85;96.99;100981.59;4883325;29;20029;-79
2023/07/03 06:34:49;;;;;;;24.08;7.18;;;;;;;14.13;97.13;100838.22;4938544;29;20027;-79
2023/07/03 06:37:20;;;;;;;22.98;7.07;;;;;;;14.35;95.71;100833.00;4937924;29;20059;-81
2023/07/03 06:39:48;;;;;;;26.80;7.28;;;;;;;15.75;96.53;101014.25;4938526;29;20036;-80
2023/07/03 06:42:13;;;;;;;20.58;6.60;;;;;;;15.73;94.78;100943.25;4938588;29;20023;-81
2023/07/03 06:44:45;;;;;;;22.67;7.05;;;;;;;15.28;91.17;100837.69;4938284;29;20103;-79
2023/07/03 06:47:52;;;;;;;28.50;6.93;;;;;;;16.35;90.46;101010.09;4938109;29;20545;-81
2023/07/03 06:50:58;;;;;;;16.67;6.57;;;;;;;16.52;91.03;101000.88;4938123;29;20042;-78
2023/07/03 06:53:33;;;;;;;21.50;6.75;;;;;;;16.09;90.51;100935.06;4938193;29;20110;-81
2023/07/03 06:56:10;;;;;;;19.80;5.70;;;;;;;15.19;89.60;100802.84;4953124;29;20043;-83
2023/07/03 06:58:39;;;;;;;21.92;6.22;;;;;;;16.00;87.62;100988.78;4936970;29;20393;-79
2023/07/03 07:01:12;;;;;;;22.55;6.30;;;;;;;15.73;89.09;100969.28;4938116;29;20028;-81
2023/07/03 07:03:43;;;;;;;17.67;5.65;;;;;;;15.82;90.67;101008.50;4962833;23;20109;-80
2023/07/03 07:06:33;;;;;;;18.45;5.60;;;;;;;14.89;89.53;100884.19;5188611;23;20058;-80
2023/07/03 07:08:59;;;;;;;20.77;6.57;;;;;;;14.39;89.30;100813.66;4976163;28;20066;-79
2023/07/03 07:11:39;;;;;;;18.48;5.85;;;;;;;15.28;89.91;100960.81;4976276;28;20495;-80
2023/07/03 07:14:11;;;;;;;21.80;5.90;;;;;;;14.61;88.84;100849.19;4975980;28;20019;-80
2023/07/03 07:16:46;;;;;;;18.02;5.70;;;;;;;15.33;88.85;100963.00;4976343;28;20564;-80
2023/07/03 07:19:12;;;;;;;22.40;6.32;;;;;;;15.73;89.03;101025.72;4976069;28;20038;-81
2023/07/03 07:21:41;;;;;;;19.98;5.47;;;;;;;15.53;88.25;100985.66;4976278;28;20027;-77
2023/07/03 07:24:14;;;;;;;23.38;6.38;;;;;;;15.95;86.87;101035.22;4975928;28;20094;-79
2023/07/03 07:26:42;;;;;;;21.00;5.93;;;;;;;15.98;86.34;101016.72;4973735;28;20069;-78
2023/07/03 07:29:07;;;;;;;21.30;5.78;;;;;;;16.28;84.97;101031.59;4956737;29;20027;-78
2023/07/03 07:31:36;;;;;;;16.25;5.80;;;;;;;16.53;84.26;101020.75;4956695;29;20053;-79
2023/07/03 07:34:03;;;;;;;19.83;5.35;;;;;;;16.79;81.43;101012.50;4939062;29;20115;-78
2023/07/03 07:36:28;;;;;;;16.38;5.05;;;;;;;17.18;81.66;101023.88;4956625;29;20410;-80
2023/07/03 07:38:54;;;;;;;20.17;5.15;;;;;;;17.78;77.47;101025.47;4956266;29;20078;-79
2023/07/03 07:41:20;;;;;;;19.55;5.25;;;;;;;18.43;73.73;101030.03;4956498;29;20047;-79
2023/07/03 07:43:47;;;;;;;15.13;4.97;;;;;;;19.48;71.28;101035.72;4956332;29;20031;-78
2023/07/03 07:46:13;;;;;;;14.45;4.90;;;;;;;20.02;66.37;101033.91;4956199;29;20027;-78
2023/07/03 07:48:39;;;;;;;18.00;5.10;;;;;;;19.70;66.31;101000.41;4956072;29;20110;-79
2023/07/03 07:51:24;;;;;;;16.92;4.85;;;;;;;19.16;66.74;100966.34;4956298;29;20034;-81
2023/07/03 07:53:50;;;;;;;17.70;4.50;;;;;;;19.27;66.45;101043.88;4941655;23;20079;-80
2023/07/03 07:56:16;;;;;;;16.40;4.78;;;;;;;18.96;67.46;101032.03;4936776;29;20474;-77
2023/07/03 07:58:41;;;;;;;17.75;4.68;;;;;;;18.57;68.19;101035.63;4936733;29;20020;-80
2023/07/03 08:01:07;;;;;;;18.00;4.80;;;;;;;18.07;68.63;101022.00;4935566;29;20047;-77
2023/07/03 08:03:38;;;;;;;17.88;4.85;;;;;;;17.11;70.35;100919.22;4936856;29;20474;-78
2023/07/03 08:06:04;;;;;;;18.10;4.78;;;;;;;17.56;70.00;101045.78;4937021;29;20504;-79
2023/07/03 08:08:31;;;;;;;20.20;4.95;;;;;;;17.20;71.80;101019.34;4976828;23;20080;-80
2023/07/03 08:10:59;;;;;;;16.73;4.20;;;;;;;17.26;73.47;101028.44;4957409;28;20393;-79
2023/07/03 08:13:25;;;;;;;18.10;4.85;;;;;;;17.33;73.08;101035.59;4975294;28;20053;-79
2023/07/03 08:15:51;;;;;;;18.98;4.68;;;;;;;17.09;71.15;100993.38;4974977;28;20085;-79
2023/07/03 08:18:17;;;;;;;14.60;4.45;;;;;;;17.42;71.89;101045.22;4975195;28;20030;-80
2023/07/03 08:20:44;;;;;;;14.48;4.95;;;;;;;17.51;71.43;101047.97;4974949;28;20122;-80
2023/07/03 08:23:09;;;;;;;19.40;4.80;;;;;;;17.51;70.38;101040.97;4974973;28;20023;-80
2023/07/03 08:25:35;;;;;;;13.05;3.85;;;;;;;17.19;70.34;101012.47;4974869;28;20074;-79
2023/07/03 08:28:00;;;;;;;15.57;4.07;;;;;;;17.20;70.73;101041.03;4957303;28;20038;-79
2023/07/03 08:30:25;;;;;;;18.02;4.68;;;;;;;16.87;70.45;101015.28;4973915;28;20117;-80
2023/07/03 08:32:53;;;;;;;16.52;3.83;;;;;;;16.92;70.25;101036.59;4974641;28;20041;-80
2023/07/03 08:35:19;;;;;;;17.00;3.88;;;;;;;17.12;69.71;101047.91;4974997;28;20030;-81
2023/07/03 08:37:44;;;;;;;15.30;4.40;;;;;;;17.44;69.03;101047.69;4957078;28;20049;-81
2023/07/03 08:40:15;;;;;;;13.38;3.88;;;;;;;17.44;67.40;101019.78;4974226;28;20050;-81
2023/07/03 08:42:47;;;;;;;17.60;4.28;;;;;;;17.63;67.46;101018.16;4974699;28;20444;-80
2023/07/03 08:45:15;;;;;;;17.52;4.40;;;;;;;17.73;65.90;101021.63;4974756;28;20054;-82
2023/07/03 08:47:49;;;;;;;14.77;4.10;;;;;;;17.84;66.35;101034.53;4974773;28;20023;-83
2023/07/03 08:50:17;;;;;;;12.90;3.83;;;;;;;18.21;66.24;101065.19;4974711;28;20027;-81
2023/07/03 08:52:47;;;;;;;15.48;4.15;;;;;;;18.38;65.26;101067.06;4974595;28;20037;-81
2023/07/03 08:55:29;;;;;;;15.30;4.40;;;;;;;18.52;64.51;101071.03;4974311;28;20050;-81
2023/07/03 08:57:55;;;;;;;16.60;3.97;;;;;;;18.29;63.28;101044.41;4974753;28;20109;-81
2023/07/03 09:00:21;;;;;;;13.52;3.85;;;;;;;18.15;62.87;101029.97;4974575;28;20105;-84
2023/07/03 09:03:04;;;;;;;14.43;3.72;;;;;;;18.47;64.28;101045.28;4974516;28;20027;-85
2023/07/03 09:05:53;;;;;;;18.33;4.43;;;;;;;18.88;62.85;101079.88;4974383;28;20093;-84
2023/07/03 09:08:30;;;;;;;17.13;4.20;;;;;;;19.08;61.82;101041.38;4973955;28;20086;-83
2023/07/03 09:11:17;;;;;;;16.05;4.20;;;;;;;19.76;59.66;101081.03;4956223;28;20057;-85
2023/07/03 09:13:48;;;;;;;16.70;3.80;;;;;;;19.08;57.91;100919.16;4974286;28;20039;-83
2023/07/03 09:16:22;;;;;;;14.32;4.13;;;;;;;20.24;56.93;101082.41;4974210;28;20286;-84
2023/07/03 09:18:56;;;;;;;12.07;3.60;;;;;;;19.81;55.62;101031.63;4974298;28;20086;-82
2023/07/03 09:21:23;;;;;;;12.85;3.83;;;;;;;19.80;55.66;101076.31;4974162;28;20030;-85
2023/07/03 09:23:57;;;;;;;14.50;3.63;;;;;;;19.53;56.26;101083.22;4974037;28;20074;-78
2023/07/03 09:27:07;;;;;;;14.07;3.95;;;;;;;19.24;57.64;101079.97;4973698;28;20030;-83
2023/07/03 09:29:34;;;;;;;13.15;4.00;;;;;;;18.50;58.00;101026.72;4898775;29;20047;-81
2023/07/03 09:31:59;;;;;;;16.20;4.50;;;;;;;18.47;59.99;101070.59;4914759;29;20091;-84
2023/07/03 09:34:25;;;;;;;14.73;4.40;;;;;;;18.20;61.01;101056.50;4914714;29;20127;-80
2023/07/03 09:37:00;;;;;;;14.93;4.25;;;;;;;18.16;63.35;101064.75;4914467;29;20036;-83
2023/07/03 09:39:27;;;;;;;16.23;4.75;;;;;;;18.15;62.43;101089.25;4914068;29;20052;-86
2023/07/03 09:41:55;;;;;;;15.02;4.82;;;;;;;17.84;64.14;101057.22;4914342;29;20032;-87
2023/07/03 09:44:22;;;;;;;18.52;5.45;;;;;;;17.92;63.62;101084.31;4914629;29;20167;-86
2023/07/03 09:46:48;;;;;;;15.77;5.68;;;;;;;17.86;64.74;101073.59;4914592;29;20040;-90
2023/07/03 09:49:21;;;;;;;15.68;5.20;;;;;;;17.89;64.07;101091.59;4914387;29;20028;-84
2023/07/03 09:51:51;;;;;;;17.33;6.05;;;;;;;17.83;64.41;101072.09;4914201;29;20494;-87
2023/07/03 09:54:31;;;;;;;17.20;5.68;;;;;;;17.50;63.80;101015.78;4914245;29;20028;-82
2023/07/03 09:56:57;;;;;;;15.70;4.85;;;;;;;17.73;65.38;101073.88;4914096;29;20036;-84
2023/07/03 09:59:25;;;;;;;13.57;4.32;;;;;;;16.90;65.76;100950.63;4914149;29;20059;-84
2023/07/03 10:02:12;;;;;;;14.75;4.88;;;;;;;17.87;66.81;101096.13;4897760;29;20036;-83
2023/07/03 10:04:59;;;;;;;16.38;4.93;;;;;;;17.08;66.91;100924.69;4931864;28;20035;-84
2023/07/03 10:08:01;;;;;;;13.10;4.65;;;;;;;18.72;64.60;101101.41;4973576;28;20023;-83
2023/07/03 10:10:34;;;;;;;15.77;4.22;;;;;;;18.75;62.55;101027.88;4934665;29;20508;-79
2023/07/03 10:13:42;;;;;;;12.65;4.50;;;;;;;18.49;61.44;100924.88;4935154;29;20027;-82
2023/07/03 10:16:33;;;;;;;13.93;4.38;;;;;;;19.35;61.97;100999.41;4845350;29;20048;-80
2023/07/03 10:19:15;;;;;;;13.70;4.40;;;;;;;19.30;59.16;100935.38;4876275;29;20033;-85
2023/07/03 10:21:42;;;;;;;12.45;4.18;;;;;;;19.65;59.16;100945.84;4860730;29;20044;-80
2023/07/03 10:24:14;;;;;;;14.32;3.85;;;;;;;20.62;63.11;101096.94;4876466;29;20202;-84
2023/07/03 10:26:47;;;;;;;19.70;4.50;;;;;;;20.44;58.08;101101.41;4858474;29;20140;-76
2023/07/03 10:29:30;;;;;;;15.85;4.40;;;;;;;20.24;58.60;101100.75;4861440;29;20546;-77
2023/07/03 10:32:08;;;;;;;11.65;3.70;;;;;;;20.52;60.98;101083.94;4860917;29;20100;-77
2023/07/03 10:34:38;;;;;;;15.20;4.53;;;;;;;20.98;56.06;101089.75;4876233;29;20037;-81
2023/07/03 10:37:06;;;;;;;15.55;4.18;;;;;;;21.27;56.56;101068.38;4875990;29;20377;-80
2023/07/03 10:39:52;;;;;;;15.52;4.32;;;;;;;21.79;54.18;101076.00;4876132;29;20130;-74
2023/07/03 10:42:25;;;;;;;15.07;4.30;;;;;;;21.47;54.63;101014.56;4857990;29;20053;-79
2023/07/03 10:44:57;;;;;;;14.70;4.60;;;;;;;21.58;51.20;101086.19;4857517;29;20034;-72
2023/07/03 10:47:32;;;;;;;12.70;4.88;;;;;;;21.06;52.02;101044.31;4857595;29;20365;-74
2023/07/03 10:49:58;;;;;;;19.15;4.03;;;;;;;20.55;52.16;101011.94;4857387;29;20044;-76
2023/07/03 10:52:47;;;;;;;12.77;3.38;;;;;;;20.59;52.49;101081.53;4870827;29;20028;-74
2023/07/03 10:55:23;;;;;;;10.68;3.60;;;;;;;20.30;53.36;101080.00;4919296;29;20035;-82
2023/07/03 10:57:48;;;;;;;14.02;3.17;;;;;;;20.07;53.67;101099.00;4918814;29;20398;-77
2023/07/03 11:00:23;;;;;;;9.13;3.10;;;;;;;19.60;50.33;101058.13;4918947;29;20032;-80
2023/07/03 11:03:22;;;;;;;8.98;2.58;;;;;;;20.26;51.20;101094.41;4910024;29;20067;-77
2023/07/03 11:06:13;;;;;;;9.93;2.83;;;;;;;20.22;50.47;101056.34;4879350;29;20071;-77
2023/07/03 11:08:55;;;;;;;11.20;3.00;;;;;;;20.69;48.54;101076.97;4883929;29;20048;-82
2023/07/03 11:11:20;;;;;;;;;;;;;;;20.89;48.18;101083.63;4898081;29;20047;-81
2023/07/03 11:13:56;;;;;;;10.53;3.23;;;;;;;20.76;49.24;101066.69;4897816;29;19919;-80
2023/07/03 11:16:28;;;;;;;10.90;2.67;;;;;;;20.75;48.95;101055.38;4897829;29;20292;-80
2023/07/03 11:18:58;;;;;;;10.80;2.70;;;;;;;20.99;46.48;101067.75;4897749;29;20522;-76
2023/07/03 11:21:57;;;;;;;11.95;2.35;;;;;;;21.44;45.27;101077.97;4897937;29;20048;-87
2023/07/03 11:24:44;;;;;;;11.57;2.80;;;;;;;21.86;45.11;101084.91;4897791;29;20037;-80
2023/07/03 11:27:15;;;;;;;9.77;2.45;;;;;;;22.04;46.00;101058.44;4897425;29;20071;-90
2023/07/03 11:29:41;;;;;;;;;;;;;;;22.25;47.05;101076.38;4898297;29;20036;-85
2023/07/03 11:32:08;;;;;;;7.93;2.60;;;;;;;21.49;44.38;100972.34;4943562;23;19923;-78
2023/07/03 11:34:44;;;;;;;11.77;2.70;;;;;;;22.02;43.75;101089.31;4956509;29;20054;-84